sensor_id;sensor_type;location;lat;lon;timestamp;temperature;humidity
780;DHT22;373;49.342;8.146;2023-12-20T00:01:42;7.00;99.90
780;DHT22;373;49.342;8.146;2023-12-20T00:04:10;7.20;99.90
780;DHT22;373;49.342;8.146;2023-12-20T00:06:37;7.50;99.90
780;DHT22;373;49.342;8.146;2023-12-20T00:09:04;7.70;99.90
780;DHT22;373;49.342;8.146;2023-12-20T00:11:31;7.70;99.90
780;DHT22;373;49.342;8.146;2023-12-20T00:13:58;7.70;99.90
780;DHT22;373;49.342;8.146;2023-12-20T00:16:25;7.70;99.90
780;DHT22;373;49.342;8.146;2023-12-20T00:18:53;7.70;99.90
780;DHT22;373;49.342;8.146;2023-12-20T00:21:20;7.70;99.90
780;DHT22;373;49.342;8.146;2023-12-20T00:23:47;7.60;91.30
780;DHT22;373;49.342;8.146;2023-12-20T00:26:14;7.60;99.90
780;DHT22;373;49.342;8.146;2023-12-20T00:28:41;7.60;96.00
780;DHT22;373;49.342;8.146;2023-12-20T00:31:08;7.70;50.00
780;DHT22;373;49.342;8.146;2023-12-20T00:33:35;7.60;99.90
780;DHT22;373;49.342;8.146;2023-12-20T00:36:04;7.70;41.20
780;DHT22;373;49.342;8.146;2023-12-20T00:38:31;7.60;89.80
780;DHT22;373;49.342;8.146;2023-12-20T00:40:58;7.50;72.00
780;DHT22;373;49.342;8.146;2023-12-20T00:43:25;7.60;84.20
780;DHT22;373;49.342;8.146;2023-12-20T00:45:52;7.50;80.10
780;DHT22;373;49.342;8.146;2023-12-20T00:48:19;7.40;56.50
780;DHT22;373;49.342;8.146;2023-12-20T00:50:46;7.40;42.30
780;DHT22;373;49.342;8.146;2023-12-20T00:53:14;7.40;90.50
780;DHT22;373;49.342;8.146;2023-12-20T00:55:41;7.50;99.90
780;DHT22;373;49.342;8.146;2023-12-20T00:58:10;7.20;25.40
780;DHT22;373;49.342;8.146;2023-12-20T01:00:37;7.20;99.90
780;DHT22;373;49.342;8.146;2023-12-20T01:03:04;7.20;98.70
780;DHT22;373;49.342;8.146;2023-12-20T01:05:31;7.00;99.90
780;DHT22;373;49.342;8.146;2023-12-20T01:07:58;7.00;99.90
780;DHT22;373;49.342;8.146;2023-12-20T01:10:27;7.10;89.50
780;DHT22;373;49.342;8.146;2023-12-20T01:12:55;7.00;99.90
780;DHT22;373;49.342;8.146;2023-12-20T01:15:22;7.00;46.00
780;DHT22;373;49.342;8.146;2023-12-20T01:17:49;7.00;99.90
780;DHT22;373;49.342;8.146;2023-12-20T01:20:16;7.00;99.90
780;DHT22;373;49.342;8.146;2023-12-20T01:22:43;7.00;99.90
780;DHT22;373;49.342;8.146;2023-12-20T01:25:11;6.80;99.90
780;DHT22;373;49.342;8.146;2023-12-20T01:27:40;6.70;99.90
780;DHT22;373;49.342;8.146;2023-12-20T01:30:08;7.00;99.90
780;DHT22;373;49.342;8.146;2023-12-20T01:32:35;7.20;44.20
780;DHT22;373;49.342;8.146;2023-12-20T01:35:02;7.30;55.30
780;DHT22;373;49.342;8.146;2023-12-20T01:37:29;6.90;54.10
780;DHT22;373;49.342;8.146;2023-12-20T01:39:56;6.80;92.70
780;DHT22;373;49.342;8.146;2023-12-20T01:42:23;6.70;56.80
780;DHT22;373;49.342;8.146;2023-12-20T01:44:51;6.80;89.10
780;DHT22;373;49.342;8.146;2023-12-20T01:47:18;6.90;90.10
780;DHT22;373;49.342;8.146;2023-12-20T01:49:45;6.80;60.20
780;DHT22;373;49.342;8.146;2023-12-20T01:52:12;6.80;99.90
780;DHT22;373;49.342;8.146;2023-12-20T01:54:40;6.90;99.90
780;DHT22;373;49.342;8.146;2023-12-20T01:57:09;7.00;81.30
780;DHT22;373;49.342;8.146;2023-12-20T01:59:37;7.10;57.90
780;DHT22;373;49.342;8.146;2023-12-20T02:02:07;7.10;17.60
780;DHT22;373;49.342;8.146;2023-12-20T02:04:34;7.10;28.60
780;DHT22;373;49.342;8.146;2023-12-20T02:07:02;7.00;15.30
780;DHT22;373;49.342;8.146;2023-12-20T02:09:30;6.80;82.00
780;DHT22;373;49.342;8.146;2023-12-20T02:11:58;6.80;74.10
780;DHT22;373;49.342;8.146;2023-12-20T02:14:25;6.90;49.20
780;DHT22;373;49.342;8.146;2023-12-20T02:16:52;6.90;99.20
780;DHT22;373;49.342;8.146;2023-12-20T02:19:21;6.70;99.90
780;DHT22;373;49.342;8.146;2023-12-20T02:21:49;6.60;99.90
780;DHT22;373;49.342;8.146;2023-12-20T02:24:16;6.50;99.90
780;DHT22;373;49.342;8.146;2023-12-20T02:26:43;6.60;99.90
780;DHT22;373;49.342;8.146;2023-12-20T02:29:10;6.70;99.90
780;DHT22;373;49.342;8.146;2023-12-20T02:31:37;6.60;99.90
780;DHT22;373;49.342;8.146;2023-12-20T02:34:04;6.60;99.90
780;DHT22;373;49.342;8.146;2023-12-20T02:36:31;6.50;99.90
780;DHT22;373;49.342;8.146;2023-12-20T02:39:00;6.50;99.90
780;DHT22;373;49.342;8.146;2023-12-20T02:41:27;6.50;99.90
780;DHT22;373;49.342;8.146;2023-12-20T02:43:54;6.50;99.90
780;DHT22;373;49.342;8.146;2023-12-20T02:46:20;6.60;99.90
780;DHT22;373;49.342;8.146;2023-12-20T02:48:47;6.50;99.90
780;DHT22;373;49.342;8.146;2023-12-20T02:51:14;6.50;99.90
780;DHT22;373;49.342;8.146;2023-12-20T02:53:41;6.60;99.90
780;DHT22;373;49.342;8.146;2023-12-20T02:56:10;6.80;99.90
780;DHT22;373;49.342;8.146;2023-12-20T02:58:37;6.90;99.90
780;DHT22;373;49.342;8.146;2023-12-20T03:01:04;6.90;99.90
780;DHT22;373;49.342;8.146;2023-12-20T03:03:31;6.90;99.90
780;DHT22;373;49.342;8.146;2023-12-20T03:05:58;6.90;99.90
780;DHT22;373;49.342;8.146;2023-12-20T03:08:25;7.00;99.90
780;DHT22;373;49.342;8.146;2023-12-20T03:10:52;6.80;99.90
780;DHT22;373;49.342;8.146;2023-12-20T03:13:21;6.70;99.90
780;DHT22;373;49.342;8.146;2023-12-20T03:15:48;6.70;99.90
780;DHT22;373;49.342;8.146;2023-12-20T03:18:15;6.60;99.90
780;DHT22;373;49.342;8.146;2023-12-20T03:20:42;6.60;99.90
780;DHT22;373;49.342;8.146;2023-12-20T03:23:09;6.60;99.90
780;DHT22;373;49.342;8.146;2023-12-20T03:25:36;6.50;99.90
780;DHT22;373;49.342;8.146;2023-12-20T03:28:03;6.50;99.90
780;DHT22;373;49.342;8.146;2023-12-20T03:30:32;6.50;99.90
780;DHT22;373;49.342;8.146;2023-12-20T03:32:59;6.50;99.90
780;DHT22;373;49.342;8.146;2023-12-20T03:35:26;6.40;99.90
780;DHT22;373;49.342;8.146;2023-12-20T03:37:52;6.40;99.90
780;DHT22;373;49.342;8.146;2023-12-20T03:40:20;6.40;99.90
780;DHT22;373;49.342;8.146;2023-12-20T03:42:48;6.30;99.90
780;DHT22;373;49.342;8.146;2023-12-20T03:45:15;6.40;99.90
780;DHT22;373;49.342;8.146;2023-12-20T03:47:43;6.30;99.90
780;DHT22;373;49.342;8.146;2023-12-20T03:50:10;6.30;99.90
780;DHT22;373;49.342;8.146;2023-12-20T03:52:37;6.30;99.90
780;DHT22;373;49.342;8.146;2023-12-20T03:55:05;6.20;99.90
780;DHT22;373;49.342;8.146;2023-12-20T03:57:32;6.30;99.90
780;DHT22;373;49.342;8.146;2023-12-20T03:59:59;6.30;99.90
780;DHT22;373;49.342;8.146;2023-12-20T04:02:26;6.40;99.90
780;DHT22;373;49.342;8.146;2023-12-20T04:04:54;6.50;99.90
780;DHT22;373;49.342;8.146;2023-12-20T04:07:21;6.40;99.90
780;DHT22;373;49.342;8.146;2023-12-20T04:09:48;6.40;99.90
780;DHT22;373;49.342;8.146;2023-12-20T04:12:15;6.40;99.90
780;DHT22;373;49.342;8.146;2023-12-20T04:14:42;6.50;99.90
780;DHT22;373;49.342;8.146;2023-12-20T04:17:09;6.50;99.90
780;DHT22;373;49.342;8.146;2023-12-20T04:19:36;6.60;99.90
780;DHT22;373;49.342;8.146;2023-12-20T04:22:05;6.60;99.90
780;DHT22;373;49.342;8.146;2023-12-20T04:24:32;6.70;99.90
780;DHT22;373;49.342;8.146;2023-12-20T04:26:59;6.70;99.90
780;DHT22;373;49.342;8.146;2023-12-20T04:29:26;6.70;99.90
780;DHT22;373;49.342;8.146;2023-12-20T04:31:53;6.70;99.90
780;DHT22;373;49.342;8.146;2023-12-20T04:34:20;6.90;99.90
780;DHT22;373;49.342;8.146;2023-12-20T04:36:47;6.80;99.90
780;DHT22;373;49.342;8.146;2023-12-20T04:39:16;6.90;99.90
780;DHT22;373;49.342;8.146;2023-12-20T04:41:43;6.90;99.90
780;DHT22;373;49.342;8.146;2023-12-20T04:44:10;6.90;99.90
780;DHT22;373;49.342;8.146;2023-12-20T04:46:37;6.90;99.90
780;DHT22;373;49.342;8.146;2023-12-20T04:49:04;6.90;99.90
780;DHT22;373;49.342;8.146;2023-12-20T04:51:33;7.00;99.90
780;DHT22;373;49.342;8.146;2023-12-20T04:54:00;7.00;99.90
780;DHT22;373;49.342;8.146;2023-12-20T04:56:28;7.10;99.90
780;DHT22;373;49.342;8.146;2023-12-20T04:58:55;7.20;99.90
780;DHT22;373;49.342;8.146;2023-12-20T05:01:22;7.20;99.90
780;DHT22;373;49.342;8.146;2023-12-20T05:03:49;7.20;99.90
780;DHT22;373;49.342;8.146;2023-12-20T05:42:53;7.10;99.90
780;DHT22;373;49.342;8.146;2023-12-20T05:45:20;7.10;99.90
780;DHT22;373;49.342;8.146;2023-12-20T05:47:47;7.10;99.90
780;DHT22;373;49.342;8.146;2023-12-20T05:50:14;7.20;99.90
780;DHT22;373;49.342;8.146;2023-12-20T05:52:41;7.30;99.90
780;DHT22;373;49.342;8.146;2023-12-20T05:55:08;7.20;99.90
780;DHT22;373;49.342;8.146;2023-12-20T05:57:35;7.10;99.90
780;DHT22;373;49.342;8.146;2023-12-20T06:00:05;7.10;99.00
780;DHT22;373;49.342;8.146;2023-12-20T06:02:38;7.00;99.90
780;DHT22;373;49.342;8.146;2023-12-20T06:05:06;6.90;99.90
780;DHT22;373;49.342;8.146;2023-12-20T06:07:33;7.00;99.90
780;DHT22;373;49.342;8.146;2023-12-20T06:10:00;6.90;99.90
780;DHT22;373;49.342;8.146;2023-12-20T06:12:27;7.10;99.90
780;DHT22;373;49.342;8.146;2023-12-20T06:14:54;7.00;99.90
780;DHT22;373;49.342;8.146;2023-12-20T06:17:24;7.00;99.90
780;DHT22;373;49.342;8.146;2023-12-20T06:19:51;7.00;99.90
780;DHT22;373;49.342;8.146;2023-12-20T06:22:18;7.00;99.90
780;DHT22;373;49.342;8.146;2023-12-20T06:24:46;7.00;99.90
780;DHT22;373;49.342;8.146;2023-12-20T06:27:13;7.00;99.90
780;DHT22;373;49.342;8.146;2023-12-20T06:29:40;7.00;99.90
780;DHT22;373;49.342;8.146;2023-12-20T06:32:08;7.10;99.90
780;DHT22;373;49.342;8.146;2023-12-20T06:34:37;7.00;94.60
780;DHT22;373;49.342;8.146;2023-12-20T06:37:04;7.00;85.00
780;DHT22;373;49.342;8.146;2023-12-20T06:39:31;7.00;18.00
780;DHT22;373;49.342;8.146;2023-12-20T06:41:59;7.20;5.20
780;DHT22;373;49.342;8.146;2023-12-20T06:44:26;7.40;2.10
780;DHT22;373;49.342;8.146;2023-12-20T06:46:53;7.50;10.60
780;DHT22;373;49.342;8.146;2023-12-20T06:49:20;7.70;1.00
780;DHT22;373;49.342;8.146;2023-12-20T06:51:49;7.80;1.00
780;DHT22;373;49.342;8.146;2023-12-20T06:54:16;7.70;1.00
780;DHT22;373;49.342;8.146;2023-12-20T06:56:43;7.90;1.00
780;DHT22;373;49.342;8.146;2023-12-20T06:59:10;7.70;1.00
780;DHT22;373;49.342;8.146;2023-12-20T07:01:37;7.20;1.00
780;DHT22;373;49.342;8.146;2023-12-20T07:04:04;7.00;1.00
780;DHT22;373;49.342;8.146;2023-12-20T07:06:31;6.80;1.00
780;DHT22;373;49.342;8.146;2023-12-20T07:09:00;6.80;1.00
780;DHT22;373;49.342;8.146;2023-12-20T07:11:27;6.80;1.00
780;DHT22;373;49.342;8.146;2023-12-20T07:13:54;6.70;1.00
780;DHT22;373;49.342;8.146;2023-12-20T07:16:21;6.70;1.00
780;DHT22;373;49.342;8.146;2023-12-20T07:18:48;6.80;1.00
780;DHT22;373;49.342;8.146;2023-12-20T07:21:15;6.90;1.00
780;DHT22;373;49.342;8.146;2023-12-20T07:23:42;6.90;33.20
780;DHT22;373;49.342;8.146;2023-12-20T07:26:11;6.90;1.00
780;DHT22;373;49.342;8.146;2023-12-20T07:28:38;7.20;11.60
780;DHT22;373;49.342;8.146;2023-12-20T07:31:06;7.40;1.00
780;DHT22;373;49.342;8.146;2023-12-20T07:33:33;7.30;1.00
780;DHT22;373;49.342;8.146;2023-12-20T07:36:00;7.50;96.50
780;DHT22;373;49.342;8.146;2023-12-20T07:38:27;7.30;96.50
780;DHT22;373;49.342;8.146;2023-12-20T07:40:55;7.30;1.00
780;DHT22;373;49.342;8.146;2023-12-20T07:43:23;7.80;1.00
780;DHT22;373;49.342;8.146;2023-12-20T07:45:50;8.00;99.90
780;DHT22;373;49.342;8.146;2023-12-20T07:48:17;8.00;99.90
780;DHT22;373;49.342;8.146;2023-12-20T07:50:44;8.10;1.00
780;DHT22;373;49.342;8.146;2023-12-20T07:53:11;8.40;1.00
780;DHT22;373;49.342;8.146;2023-12-20T07:55:39;8.70;1.00
780;DHT22;373;49.342;8.146;2023-12-20T07:58:06;8.20;1.00
780;DHT22;373;49.342;8.146;2023-12-20T08:00:34;8.10;99.90
780;DHT22;373;49.342;8.146;2023-12-20T08:03:01;7.70;1.00
780;DHT22;373;49.342;8.146;2023-12-20T08:05:29;7.50;99.90
780;DHT22;373;49.342;8.146;2023-12-20T08:07:56;7.20;99.90
780;DHT22;373;49.342;8.146;2023-12-20T08:10:23;7.50;51.80
780;DHT22;373;49.342;8.146;2023-12-20T08:12:50;8.30;1.00
780;DHT22;373;49.342;8.146;2023-12-20T08:15:17;9.30;99.90
780;DHT22;373;49.342;8.146;2023-12-20T08:17:46;10.20;99.90
780;DHT22;373;49.342;8.146;2023-12-20T08:20:13;10.30;99.90
780;DHT22;373;49.342;8.146;2023-12-20T08:22:40;10.50;99.90
780;DHT22;373;49.342;8.146;2023-12-20T08:25:07;11.60;1.00
780;DHT22;373;49.342;8.146;2023-12-20T08:27:38;11.80;1.00
780;DHT22;373;49.342;8.146;2023-12-20T08:30:06;10.60;1.00
780;DHT22;373;49.342;8.146;2023-12-20T08:32:34;10.00;99.90
780;DHT22;373;49.342;8.146;2023-12-20T08:35:03;9.60;99.90
780;DHT22;373;49.342;8.146;2023-12-20T08:37:31;9.00;1.00
780;DHT22;373;49.342;8.146;2023-12-20T08:39:58;8.40;1.00
780;DHT22;373;49.342;8.146;2023-12-20T08:42:25;8.80;99.90
780;DHT22;373;49.342;8.146;2023-12-20T08:44:56;9.90;97.90
780;DHT22;373;49.342;8.146;2023-12-20T08:47:24;10.90;92.30
780;DHT22;373;49.342;8.146;2023-12-20T08:49:52;12.50;1.00
780;DHT22;373;49.342;8.146;2023-12-20T08:52:23;13.20;1.00
780;DHT22;373;49.342;8.146;2023-12-20T08:54:50;13.50;99.90
780;DHT22;373;49.342;8.146;2023-12-20T08:57:19;13.60;99.90
780;DHT22;373;49.342;8.146;2023-12-20T08:59:48;13.70;99.90
780;DHT22;373;49.342;8.146;2023-12-20T09:02:16;13.20;99.90
780;DHT22;373;49.342;8.146;2023-12-20T09:04:43;12.40;99.90
780;DHT22;373;49.342;8.146;2023-12-20T09:07:22;11.30;1.00
780;DHT22;373;49.342;8.146;2023-12-20T09:09:50;10.90;1.00
780;DHT22;373;49.342;8.146;2023-12-20T09:12:17;10.30;1.00
780;DHT22;373;49.342;8.146;2023-12-20T09:14:45;10.00;99.90
780;DHT22;373;49.342;8.146;2023-12-20T09:17:12;9.70;1.00
780;DHT22;373;49.342;8.146;2023-12-20T09:19:39;10.20;99.90
780;DHT22;373;49.342;8.146;2023-12-20T09:22:06;10.60;99.90
780;DHT22;373;49.342;8.146;2023-12-20T09:24:35;10.60;99.90
780;DHT22;373;49.342;8.146;2023-12-20T09:27:02;10.00;99.90
780;DHT22;373;49.342;8.146;2023-12-20T09:29:29;9.50;1.00
780;DHT22;373;49.342;8.146;2023-12-20T09:31:56;9.00;99.90
780;DHT22;373;49.342;8.146;2023-12-20T09:34:24;8.40;1.00
780;DHT22;373;49.342;8.146;2023-12-20T09:36:51;8.10;1.00
780;DHT22;373;49.342;8.146;2023-12-20T09:39:19;8.10;99.90
780;DHT22;373;49.342;8.146;2023-12-20T09:41:56;8.20;99.90
780;DHT22;373;49.342;8.146;2023-12-20T09:44:26;8.20;99.90
780;DHT22;373;49.342;8.146;2023-12-20T09:46:55;8.70;1.00
780;DHT22;373;49.342;8.146;2023-12-20T09:49:22;9.30;1.00
780;DHT22;373;49.342;8.146;2023-12-20T09:51:51;10.50;99.90
780;DHT22;373;49.342;8.146;2023-12-20T09:54:18;11.70;1.00
780;DHT22;373;49.342;8.146;2023-12-20T09:56:45;13.30;1.00
780;DHT22;373;49.342;8.146;2023-12-20T09:59:14;13.20;1.00
780;DHT22;373;49.342;8.146;2023-12-20T10:01:42;14.10;99.90
780;DHT22;373;49.342;8.146;2023-12-20T10:04:10;13.70;99.90
780;DHT22;373;49.342;8.146;2023-12-20T10:06:39;14.00;99.90
780;DHT22;373;49.342;8.146;2023-12-20T10:09:07;13.30;99.90
780;DHT22;373;49.342;8.146;2023-12-20T10:11:35;14.20;99.90
780;DHT22;373;49.342;8.146;2023-12-20T10:14:06;15.60;99.90
780;DHT22;373;49.342;8.146;2023-12-20T10:16:34;16.00;99.90
780;DHT22;373;49.342;8.146;2023-12-20T10:19:01;15.40;99.90
780;DHT22;373;49.342;8.146;2023-12-20T10:21:28;15.20;99.90
780;DHT22;373;49.342;8.146;2023-12-20T10:23:57;13.90;99.90
780;DHT22;373;49.342;8.146;2023-12-20T10:26:25;12.40;99.90
780;DHT22;373;49.342;8.146;2023-12-20T10:28:54;11.50;99.90
780;DHT22;373;49.342;8.146;2023-12-20T10:31:28;10.70;1.00
780;DHT22;373;49.342;8.146;2023-12-20T10:34:01;10.10;51.10
780;DHT22;373;49.342;8.146;2023-12-20T10:36:30;9.70;1.00
780;DHT22;373;49.342;8.146;2023-12-20T10:38:58;9.10;34.50
780;DHT22;373;49.342;8.146;2023-12-20T10:41:28;9.20;1.00
780;DHT22;373;49.342;8.146;2023-12-20T10:43:57;8.80;99.90
780;DHT22;373;49.342;8.146;2023-12-20T10:46:26;8.90;1.00
780;DHT22;373;49.342;8.146;2023-12-20T10:48:54;8.90;99.90
780;DHT22;373;49.342;8.146;2023-12-20T10:51:24;8.90;1.00
780;DHT22;373;49.342;8.146;2023-12-20T10:53:53;8.60;1.00
780;DHT22;373;49.342;8.146;2023-12-20T10:56:20;8.20;82.00
780;DHT22;373;49.342;8.146;2023-12-20T10:58:50;8.20;99.90
780;DHT22;373;49.342;8.146;2023-12-20T11:01:18;8.20;1.00
780;DHT22;373;49.342;8.146;2023-12-20T11:03:49;8.10;1.00
780;DHT22;373;49.342;8.146;2023-12-20T11:06:33;8.00;1.00
780;DHT22;373;49.342;8.146;2023-12-20T11:09:10;8.00;99.90
780;DHT22;373;49.342;8.146;2023-12-20T11:11:52;8.20;99.90
780;DHT22;373;49.342;8.146;2023-12-20T11:14:25;8.40;1.00
780;DHT22;373;49.342;8.146;2023-12-20T11:17:05;8.30;99.90
780;DHT22;373;49.342;8.146;2023-12-20T11:19:34;8.10;99.90
780;DHT22;373;49.342;8.146;2023-12-20T11:22:04;7.70;99.90
780;DHT22;373;49.342;8.146;2023-12-20T11:24:31;7.50;99.90
780;DHT22;373;49.342;8.146;2023-12-20T11:27:00;7.30;99.90
780;DHT22;373;49.342;8.146;2023-12-20T11:29:33;7.50;1.00
780;DHT22;373;49.342;8.146;2023-12-20T11:32:02;7.50;99.90
780;DHT22;373;49.342;8.146;2023-12-20T11:34:32;7.50;99.90
780;DHT22;373;49.342;8.146;2023-12-20T11:37:00;7.60;99.90
780;DHT22;373;49.342;8.146;2023-12-20T11:39:30;7.50;1.00
780;DHT22;373;49.342;8.146;2023-12-20T11:42:04;7.70;99.90
780;DHT22;373;49.342;8.146;2023-12-20T11:44:31;7.80;99.90
780;DHT22;373;49.342;8.146;2023-12-20T11:46:59;8.40;1.00
780;DHT22;373;49.342;8.146;2023-12-20T11:49:26;8.80;1.00
780;DHT22;373;49.342;8.146;2023-12-20T11:51:55;8.60;1.00
780;DHT22;373;49.342;8.146;2023-12-20T11:54:22;8.50;1.00
780;DHT22;373;49.342;8.146;2023-12-20T11:56:50;8.10;41.60
780;DHT22;373;49.342;8.146;2023-12-20T11:59:17;8.00;1.00
780;DHT22;373;49.342;8.146;2023-12-20T12:01:48;8.20;99.90
780;DHT22;373;49.342;8.146;2023-12-20T12:04:16;8.10;99.90
780;DHT22;373;49.342;8.146;2023-12-20T12:06:44;8.20;1.00
780;DHT22;373;49.342;8.146;2023-12-20T12:09:11;8.30;99.90
780;DHT22;373;49.342;8.146;2023-12-20T12:11:38;8.30;1.00
780;DHT22;373;49.342;8.146;2023-12-20T12:14:07;8.30;95.40
780;DHT22;373;49.342;8.146;2023-12-20T12:16:34;8.40;99.90
780;DHT22;373;49.342;8.146;2023-12-20T12:19:01;8.40;99.90
780;DHT22;373;49.342;8.146;2023-12-20T12:21:30;8.30;99.90
780;DHT22;373;49.342;8.146;2023-12-20T12:24:07;8.20;99.90
780;DHT22;373;49.342;8.146;2023-12-20T12:26:34;8.20;99.90
780;DHT22;373;49.342;8.146;2023-12-20T12:29:01;8.00;1.00
780;DHT22;373;49.342;8.146;2023-12-20T12:31:30;8.10;1.00
780;DHT22;373;49.342;8.146;2023-12-20T12:33:57;8.10;1.00
780;DHT22;373;49.342;8.146;2023-12-20T12:36:24;7.90;1.00
780;DHT22;373;49.342;8.146;2023-12-20T12:38:51;7.80;99.90
780;DHT22;373;49.342;8.146;2023-12-20T12:41:18;8.00;99.90
780;DHT22;373;49.342;8.146;2023-12-20T12:43:46;8.10;99.90
780;DHT22;373;49.342;8.146;2023-12-20T12:46:13;7.80;99.90
780;DHT22;373;49.342;8.146;2023-12-20T12:48:41;7.70;53.20
780;DHT22;373;49.342;8.146;2023-12-20T12:51:09;7.80;1.00
780;DHT22;373;49.342;8.146;2023-12-20T12:53:39;8.00;99.90
780;DHT22;373;49.342;8.146;2023-12-20T12:56:06;7.80;73.10
780;DHT22;373;49.342;8.146;2023-12-20T12:58:34;8.00;1.00
780;DHT22;373;49.342;8.146;2023-12-20T13:01:01;7.90;73.60
780;DHT22;373;49.342;8.146;2023-12-20T13:03:29;7.70;99.90
780;DHT22;373;49.342;8.146;2023-12-20T13:05:57;7.70;1.00
780;DHT22;373;49.342;8.146;2023-12-20T13:08:24;7.80;1.00
780;DHT22;373;49.342;8.146;2023-12-20T13:10:54;7.80;99.90
780;DHT22;373;49.342;8.146;2023-12-20T13:13:24;7.60;99.90
780;DHT22;373;49.342;8.146;2023-12-20T13:15:51;7.70;55.10
780;DHT22;373;49.342;8.146;2023-12-20T13:18:21;7.70;99.90
780;DHT22;373;49.342;8.146;2023-12-20T13:20:48;7.60;99.90
780;DHT22;373;49.342;8.146;2023-12-20T13:23:16;7.60;99.90
780;DHT22;373;49.342;8.146;2023-12-20T13:25:44;7.40;1.00
780;DHT22;373;49.342;8.146;2023-12-20T13:28:12;7.50;1.00
780;DHT22;373;49.342;8.146;2023-12-20T13:30:40;7.50;1.00
780;DHT22;373;49.342;8.146;2023-12-20T13:33:07;7.60;1.00
780;DHT22;373;49.342;8.146;2023-12-20T13:35:34;7.80;1.00
780;DHT22;373;49.342;8.146;2023-12-20T13:38:01;7.90;1.00
780;DHT22;373;49.342;8.146;2023-12-20T13:40:30;8.00;99.90
780;DHT22;373;49.342;8.146;2023-12-20T13:42:57;7.90;99.90
780;DHT22;373;49.342;8.146;2023-12-20T13:45:24;7.90;99.90
780;DHT22;373;49.342;8.146;2023-12-20T13:47:52;8.10;1.00
780;DHT22;373;49.342;8.146;2023-12-20T13:50:19;8.00;1.00
780;DHT22;373;49.342;8.146;2023-12-20T13:52:46;7.90;1.00
780;DHT22;373;49.342;8.146;2023-12-20T13:55:13;7.90;1.00
780;DHT22;373;49.342;8.146;2023-12-20T13:57:42;7.90;1.00
780;DHT22;373;49.342;8.146;2023-12-20T14:00:10;7.90;1.00
780;DHT22;373;49.342;8.146;2023-12-20T14:02:40;7.80;99.90
780;DHT22;373;49.342;8.146;2023-12-20T14:05:08;7.90;1.00
780;DHT22;373;49.342;8.146;2023-12-20T14:07:35;7.90;1.00
780;DHT22;373;49.342;8.146;2023-12-20T14:10:03;7.80;99.90
780;DHT22;373;49.342;8.146;2023-12-20T14:12:31;7.70;1.00
780;DHT22;373;49.342;8.146;2023-12-20T14:15:03;7.70;77.90
780;DHT22;373;49.342;8.146;2023-12-20T14:17:35;7.70;91.00
780;DHT22;373;49.342;8.146;2023-12-20T14:20:02;7.70;1.00
780;DHT22;373;49.342;8.146;2023-12-20T14:22:30;7.70;1.00
780;DHT22;373;49.342;8.146;2023-12-20T14:24:57;7.80;99.90
780;DHT22;373;49.342;8.146;2023-12-20T14:27:24;7.80;99.90
780;DHT22;373;49.342;8.146;2023-12-20T14:29:53;7.90;16.20
780;DHT22;373;49.342;8.146;2023-12-20T14:32:22;8.00;1.00
780;DHT22;373;49.342;8.146;2023-12-20T14:34:49;7.90;99.90
780;DHT22;373;49.342;8.146;2023-12-20T14:37:16;7.90;99.90
780;DHT22;373;49.342;8.146;2023-12-20T14:39:43;7.90;1.00
780;DHT22;373;49.342;8.146;2023-12-20T14:42:10;8.00;1.00
780;DHT22;373;49.342;8.146;2023-12-20T14:44:39;8.10;1.00
780;DHT22;373;49.342;8.146;2023-12-20T14:47:07;8.50;99.90
780;DHT22;373;49.342;8.146;2023-12-20T14:49:36;8.50;99.90
780;DHT22;373;49.342;8.146;2023-12-20T14:52:03;8.30;99.90
780;DHT22;373;49.342;8.146;2023-12-20T14:54:31;8.10;1.00
780;DHT22;373;49.342;8.146;2023-12-20T14:56:58;8.00;99.90
780;DHT22;373;49.342;8.146;2023-12-20T14:59:26;8.00;99.90
780;DHT22;373;49.342;8.146;2023-12-20T15:01:53;7.80;1.00
780;DHT22;373;49.342;8.146;2023-12-20T15:04:20;7.60;1.00
780;DHT22;373;49.342;8.146;2023-12-20T15:06:55;7.60;99.90
780;DHT22;373;49.342;8.146;2023-12-20T15:09:22;7.60;99.90
780;DHT22;373;49.342;8.146;2023-12-20T15:11:50;7.60;99.90
780;DHT22;373;49.342;8.146;2023-12-20T15:14:17;7.40;99.90
780;DHT22;373;49.342;8.146;2023-12-20T15:16:45;7.30;99.90
780;DHT22;373;49.342;8.146;2023-12-20T15:19:13;7.30;1.00
780;DHT22;373;49.342;8.146;2023-12-20T15:21:40;7.30;1.00
780;DHT22;373;49.342;8.146;2023-12-20T15:24:09;7.30;1.00
780;DHT22;373;49.342;8.146;2023-12-20T15:26:41;7.20;1.00
780;DHT22;373;49.342;8.146;2023-12-20T15:29:08;7.30;1.00
780;DHT22;373;49.342;8.146;2023-12-20T15:31:37;7.20;1.00
780;DHT22;373;49.342;8.146;2023-12-20T15:34:08;7.30;1.00
780;DHT22;373;49.342;8.146;2023-12-20T15:36:35;7.20;1.00
780;DHT22;373;49.342;8.146;2023-12-20T15:39:02;7.40;1.00
780;DHT22;373;49.342;8.146;2023-12-20T15:41:31;7.40;1.00
780;DHT22;373;49.342;8.146;2023-12-20T15:43:58;7.40;1.00
780;DHT22;373;49.342;8.146;2023-12-20T15:46:26;7.50;1.00
780;DHT22;373;49.342;8.146;2023-12-20T15:48:53;7.30;1.00
780;DHT22;373;49.342;8.146;2023-12-20T15:51:21;7.40;1.00
780;DHT22;373;49.342;8.146;2023-12-20T15:53:49;7.40;1.00
780;DHT22;373;49.342;8.146;2023-12-20T15:56:16;7.40;1.00
780;DHT22;373;49.342;8.146;2023-12-20T15:58:45;7.40;1.00
780;DHT22;373;49.342;8.146;2023-12-20T16:01:13;7.50;1.00
780;DHT22;373;49.342;8.146;2023-12-20T16:03:40;7.40;1.00
780;DHT22;373;49.342;8.146;2023-12-20T16:06:09;7.50;1.00
780;DHT22;373;49.342;8.146;2023-12-20T16:08:36;7.50;1.00
780;DHT22;373;49.342;8.146;2023-12-20T16:11:03;7.60;1.00
780;DHT22;373;49.342;8.146;2023-12-20T16:13:30;7.70;1.00
780;DHT22;373;49.342;8.146;2023-12-20T16:16:01;7.60;1.00
780;DHT22;373;49.342;8.146;2023-12-20T16:18:28;7.50;1.00
780;DHT22;373;49.342;8.146;2023-12-20T16:20:56;7.50;1.00
780;DHT22;373;49.342;8.146;2023-12-20T16:23:23;7.50;1.00
780;DHT22;373;49.342;8.146;2023-12-20T16:25:50;7.50;1.00
780;DHT22;373;49.342;8.146;2023-12-20T16:28:17;7.60;1.00
780;DHT22;373;49.342;8.146;2023-12-20T16:30:44;7.70;1.00
780;DHT22;373;49.342;8.146;2023-12-20T16:33:13;7.60;1.00
780;DHT22;373;49.342;8.146;2023-12-20T16:35:40;7.60;1.00
780;DHT22;373;49.342;8.146;2023-12-20T16:38:08;7.70;1.00
780;DHT22;373;49.342;8.146;2023-12-20T16:40:35;7.70;1.00
780;DHT22;373;49.342;8.146;2023-12-20T16:43:02;7.70;1.00
780;DHT22;373;49.342;8.146;2023-12-20T16:45:30;7.70;1.00
780;DHT22;373;49.342;8.146;2023-12-20T16:47:57;7.70;1.00
780;DHT22;373;49.342;8.146;2023-12-20T16:50:25;7.70;1.00
780;DHT22;373;49.342;8.146;2023-12-20T16:52:53;7.90;1.00
780;DHT22;373;49.342;8.146;2023-12-20T16:55:20;7.70;1.00
780;DHT22;373;49.342;8.146;2023-12-20T16:57:48;7.70;1.00
780;DHT22;373;49.342;8.146;2023-12-20T17:00:16;7.70;1.00
780;DHT22;373;49.342;8.146;2023-12-20T17:02:43;7.80;1.00
780;DHT22;373;49.342;8.146;2023-12-20T17:05:10;7.70;1.00
780;DHT22;373;49.342;8.146;2023-12-20T17:07:38;7.80;1.00
780;DHT22;373;49.342;8.146;2023-12-20T17:10:07;7.80;1.00
780;DHT22;373;49.342;8.146;2023-12-20T17:12:34;7.90;1.00
780;DHT22;373;49.342;8.146;2023-12-20T17:15:01;7.90;1.00
780;DHT22;373;49.342;8.146;2023-12-20T17:17:28;7.80;1.00
780;DHT22;373;49.342;8.146;2023-12-20T17:19:56;7.80;1.00
780;DHT22;373;49.342;8.146;2023-12-20T17:22:23;7.80;1.00
780;DHT22;373;49.342;8.146;2023-12-20T17:24:51;7.80;1.00
780;DHT22;373;49.342;8.146;2023-12-20T17:27:18;7.80;1.00
780;DHT22;373;49.342;8.146;2023-12-20T17:29:45;7.80;1.00
780;DHT22;373;49.342;8.146;2023-12-20T17:32:12;7.80;1.00
780;DHT22;373;49.342;8.146;2023-12-20T17:34:39;7.70;1.00
780;DHT22;373;49.342;8.146;2023-12-20T17:37:07;7.70;1.00